Time;durP1;ratioP1;P1;durP2;ratioP2;P2;SDS_P1;SDS_P2;PMS_P1;PMS_P2;Temp;Humidity;BMP_temperature;BMP_pressure;BME280_temperature;BME280_humidity;BME280_pressure;Samples;Min_cycle;Max_cycle;Signal;HPM_P1;HPM_P2
2021/07/16 00:00:14;;;;;;;10.55;7.07;;;12.60;99.90;;;;;;4992605;28;20056;-88
2021/07/16 00:02:42;;;;;;;17.63;6.63;;;12.50;99.90;;;;;;4992847;28;20141;-89
2021/07/16 00:05:10;;;;;;;6.93;6.22;;;12.40;99.90;;;;;;4993875;28;20109;-89
2021/07/16 00:07:38;;;;;;;10.77;7.00;;;12.50;99.90;;;;;;4992885;28;20050;-88
2021/07/16 00:10:11;;;;;;;10.93;6.68;;;12.40;99.90;;;;;;4994478;28;20064;-89
2021/07/16 00:12:38;;;;;;;8.40;6.93;;;12.40;99.90;;;;;;4996328;28;20521;-89
2021/07/16 00:15:07;;;;;;;9.52;6.75;;;12.40;99.90;;;;;;4996388;28;20302;-89
2021/07/16 00:17:34;;;;;;;9.27;7.18;;;12.40;99.90;;;;;;4996546;28;20456;-89
2021/07/16 00:20:01;;;;;;;9.20;7.53;;;12.50;99.90;;;;;;4996309;28;20072;-89
2021/07/16 00:22:27;;;;;;;7.65;6.70;;;12.30;99.90;;;;;;4996659;28;20065;-89
2021/07/16 00:24:54;;;;;;;7.93;6.43;;;12.20;99.90;;;;;;4996296;28;20050;-88
2021/07/16 00:27:21;;;;;;;14.60;7.38;;;12.20;99.90;;;;;;4996152;28;20137;-89
2021/07/16 00:29:48;;;;;;;8.40;6.68;;;12.30;99.90;;;;;;4996006;28;20057;-89
2021/07/16 00:32:14;;;;;;;7.55;6.55;;;12.30;99.90;;;;;;4996111;28;20056;-89
2021/07/16 00:34:41;;;;;;;7.55;6.55;;;12.30;99.90;;;;;;4995989;28;20050;-89
2021/07/16 00:37:08;;;;;;;10.35;7.38;;;12.20;99.90;;;;;;4996133;28;20129;-89
2021/07/16 00:39:36;;;;;;;11.88;8.18;;;12.30;99.90;;;;;;4995684;28;20046;-90
2021/07/16 00:42:03;;;;;;;10.18;7.00;;;12.30;99.90;;;;;;4995721;28;20046;-89
2021/07/16 00:44:35;;;;;;;11.43;7.72;;;12.20;99.90;;;;;;4995972;28;20054;-90
2021/07/16 00:47:06;;;;;;;7.75;6.90;;;12.30;99.90;;;;;;4996052;28;20050;-89
2021/07/16 00:49:34;;;;;;;11.15;7.60;;;12.30;99.90;;;;;;4995935;28;20066;-88
2021/07/16 00:52:02;;;;;;;9.68;6.68;;;12.30;99.90;;;;;;4995951;28;20053;-90
2021/07/16 00:54:29;;;;;;;10.40;6.93;;;12.30;99.90;;;;;;4997155;28;20145;-88
2021/07/16 00:56:56;;;;;;;11.13;7.30;;;12.30;99.90;;;;;;5000484;28;20073;-89
2021/07/16 00:59:25;;;;;;;16.25;7.53;;;12.30;99.90;;;;;;5002307;28;20141;-89
2021/07/16 01:01:55;;;;;;;9.85;6.88;;;12.20;99.90;;;;;;4995937;28;20050;-89
2021/07/16 01:04:23;;;;;;;11.77;8.55;;;12.10;99.90;;;;;;4995805;28;20055;-89
2021/07/16 01:06:50;;;;;;;9.18;7.25;;;12.00;99.90;;;;;;4995539;28;20129;-89
2021/07/16 01:09:17;;;;;;;15.30;8.68;;;12.00;99.90;;;;;;4995453;28;20144;-89
2021/07/16 01:11:44;;;;;;;8.43;7.63;;;11.90;99.90;;;;;;4995429;28;20081;-89
2021/07/16 01:14:12;;;;;;;10.73;7.72;;;11.90;99.90;;;;;;4995384;28;20066;-89
2021/07/16 01:16:39;;;;;;;18.70;9.43;;;11.90;99.90;;;;;;4995518;28;20066;-89
2021/07/16 01:19:09;;;;;;;11.05;7.47;;;11.90;99.90;;;;;;4995122;28;20050;-89
2021/07/16 01:21:37;;;;;;;9.40;8.32;;;11.80;99.90;;;;;;4994963;28;20050;-89
2021/07/16 01:24:06;;;;;;;10.82;7.85;;;11.70;99.90;;;;;;4995181;28;20042;-88
2021/07/16 01:26:36;;;;;;;9.30;8.30;;;11.70;99.90;;;;;;4994955;28;20141;-89
2021/07/16 01:29:09;;;;;;;8.90;7.70;;;11.70;99.90;;;;;;4995449;28;20403;-90
2021/07/16 01:31:36;;;;;;;8.25;7.43;;;11.80;99.90;;;;;;4994913;28;20466;-89
2021/07/16 01:34:03;;;;;;;11.10;8.05;;;11.70;99.90;;;;;;4994781;28;20073;-89
2021/07/16 01:36:30;;;;;;;11.90;7.60;;;11.80;99.90;;;;;;4994926;28;20046;-89
2021/07/16 01:38:57;;;;;;;9.13;7.45;;;11.80;99.90;;;;;;4994976;28;20064;-90
2021/07/16 01:41:23;;;;;;;10.27;8.27;;;11.80;99.90;;;;;;4995035;28;20064;-89
2021/07/16 01:43:50;;;;;;;11.82;7.43;;;11.70;99.90;;;;;;4994978;28;20081;-89
2021/07/16 01:46:17;;;;;;;8.43;7.45;;;11.70;99.90;;;;;;4994855;28;20076;-89
2021/07/16 01:48:43;;;;;;;10.70;7.45;;;11.60;99.90;;;;;;4995489;28;20529;-89
2021/07/16 01:51:10;;;;;;;9.13;7.13;;;11.70;99.90;;;;;;4999481;28;20050;-89
2021/07/16 01:53:38;;;;;;;13.55;9.10;;;11.70;99.90;;;;;;4996614;28;20402;-89
2021/07/16 01:56:05;;;;;;;10.25;7.82;;;11.70;99.90;;;;;;4994502;28;20141;-89
2021/07/16 01:58:31;;;;;;;14.75;8.07;;;11.60;99.90;;;;;;4994705;28;20058;-89
2021/07/16 02:00:59;;;;;;;14.43;7.53;;;11.60;99.90;;;;;;4994179;28;20133;-89
2021/07/16 02:03:26;;;;;;;14.43;8.52;;;11.50;99.90;;;;;;4994082;28;20398;-89
2021/07/16 02:05:53;;;;;;;11.32;8.27;;;11.50;99.90;;;;;;4994103;28;20069;-89
2021/07/16 02:08:21;;;;;;;11.60;7.93;;;11.60;99.90;;;;;;4994303;28;20410;-89
2021/07/16 02:10:51;;;;;;;18.20;9.52;;;11.60;99.90;;;;;;4994530;28;20050;-89
2021/07/16 02:13:18;;;;;;;10.93;8.25;;;11.60;99.90;;;;;;4993847;28;20503;-89
2021/07/16 02:15:48;;;;;;;17.15;8.75;;;11.50;99.90;;;;;;4993869;28;20050;-89
2021/07/16 02:18:16;;;;;;;11.82;7.43;;;11.40;99.90;;;;;;4994004;28;20648;-89
2021/07/16 02:20:44;;;;;;;11.77;7.72;;;11.40;99.90;;;;;;4993926;28;20050;-89
2021/07/16 02:23:17;;;;;;;9.75;7.95;;;11.40;99.90;;;;;;4994185;28;20046;-88
2021/07/16 02:25:44;;;;;;;15.45;9.80;;;11.40;99.90;;;;;;4993894;28;20427;-89
2021/07/16 02:28:17;;;;;;;15.45;9.52;;;11.40;99.90;;;;;;4993914;28;20407;-89
2021/07/16 02:30:44;;;;;;;11.73;9.32;;;11.30;99.90;;;;;;4993979;28;20134;-89
2021/07/16 02:33:12;;;;;;;12.43;8.38;;;11.30;99.90;;;;;;4993427;28;20070;-89
2021/07/16 02:35:39;;;;;;;15.30;9.57;;;11.30;99.90;;;;;;4994056;28;20437;-89
2021/07/16 02:38:06;;;;;;;11.15;8.55;;;11.20;99.90;;;;;;4993927;28;20060;-89
2021/07/16 02:40:34;;;;;;;11.60;7.88;;;11.20;99.90;;;;;;4993660;28;20050;-89
2021/07/16 02:43:02;;;;;;;11.45;8.65;;;11.30;99.90;;;;;;4993818;28;20050;-88
2021/07/16 02:45:29;;;;;;;11.10;8.63;;;11.30;99.90;;;;;;4993868;28;20054;-88
2021/07/16 02:47:56;;;;;;;12.05;8.40;;;11.20;99.90;;;;;;4993878;28;20074;-89
2021/07/16 02:50:32;;;;;;;11.60;8.13;;;11.30;99.90;;;;;;4993934;28;20078;-88
2021/07/16 02:53:10;;;;;;;13.13;7.85;;;11.30;99.90;;;;;;4993731;28;20057;-89
2021/07/16 02:55:38;;;;;;;15.85;9.80;;;11.30;99.90;;;;;;4993623;28;20054;-88
2021/07/16 02:58:09;;;;;;;11.18;8.27;;;11.20;99.90;;;;;;4993571;28;20138;-88
2021/07/16 03:00:37;;;;;;;12.10;8.02;;;11.20;99.90;;;;;;4993549;28;20050;-88
2021/07/16 03:03:04;;;;;;;16.15;8.82;;;11.20;99.90;;;;;;4993518;28;20050;-88
2021/07/16 03:05:37;;;;;;;15.10;8.93;;;11.20;99.90;;;;;;4993238;28;20074;-88
2021/07/16 03:08:12;;;;;;;19.50;10.77;;;11.30;99.90;;;;;;4993470;28;20133;-89
2021/07/16 03:10:44;;;;;;;13.48;10.30;;;11.20;99.90;;;;;;4993574;28;20590;-89
2021/07/16 03:13:14;;;;;;;18.23;9.52;;;11.30;99.90;;;;;;4993113;28;20066;-88
2021/07/16 03:15:41;;;;;;;13.82;10.20;;;11.40;99.90;;;;;;4994653;28;20537;-89
2021/07/16 03:18:08;;;;;;;13.73;10.02;;;11.50;99.90;;;;;;4995255;28;20074;-89
2021/07/16 03:20:42;;;;;;;15.20;10.43;;;11.50;99.90;;;;;;4994705;28;20054;-89
2021/07/16 03:23:10;;;;;;;15.52;10.48;;;11.60;99.90;;;;;;4993362;28;20137;-88
2021/07/16 03:25:38;;;;;;;13.75;10.32;;;11.60;99.90;;;;;;4993052;28;20058;-89
2021/07/16 03:28:06;;;;;;;16.55;9.60;;;11.70;99.90;;;;;;4993021;28;20133;-88
2021/07/16 03:30:33;;;;;;;12.88;9.32;;;11.60;99.90;;;;;;4993308;28;20054;-88
2021/07/16 03:33:01;;;;;;;12.57;9.43;;;11.50;99.90;;;;;;4993294;28;20133;-89
2021/07/16 03:35:28;;;;;;;13.35;9.65;;;11.50;99.90;;;;;;4993037;28;20150;-88
2021/07/16 03:37:55;;;;;;;11.23;9.68;;;11.60;99.90;;;;;;4993141;28;20548;-88
2021/07/16 03:40:27;;;;;;;13.38;9.40;;;11.60;99.90;;;;;;4992994;28;20047;-88
2021/07/16 03:42:56;;;;;;;15.95;10.50;;;11.50;99.90;;;;;;4993222;28;20114;-89
2021/07/16 03:45:23;;;;;;;11.48;8.68;;;11.50;99.90;;;;;;4994985;28;20054;-88
2021/07/16 03:47:50;;;;;;;13.55;9.70;;;11.40;99.90;;;;;;4996836;28;20046;-88
2021/07/16 03:50:20;;;;;;;17.42;11.25;;;11.50;99.90;;;;;;4996953;28;20137;-88
2021/07/16 03:52:47;;;;;;;20.17;12.63;;;11.50;99.90;;;;;;4996932;28;20510;-88
2021/07/16 03:55:14;;;;;;;17.58;13.38;;;11.50;99.90;;;;;;4996763;28;20607;-88
2021/07/16 03:57:43;;;;;;;17.55;11.18;;;11.40;99.90;;;;;;4996477;28;20050;-87
2021/07/16 04:00:12;;;;;;;20.13;11.25;;;11.40;99.90;;;;;;4996379;28;20054;-89
2021/07/16 04:02:39;;;;;;;17.88;11.57;;;11.40;99.90;;;;;;4996779;28;20127;-89
2021/07/16 04:05:07;;;;;;;16.77;11.77;;;11.50;99.90;;;;;;4996548;28;20142;-89
2021/07/16 04:07:35;;;;;;;15.15;12.88;;;11.50;99.90;;;;;;4996549;28;20046;-88
2021/07/16 04:10:02;;;;;;;14.98;12.95;;;11.50;99.90;;;;;;4996508;28;20104;-88
2021/07/16 04:12:29;;;;;;;27.85;15.40;;;11.50;99.90;;;;;;4996211;28;20142;-89
2021/07/16 04:14:56;;;;;;;21.02;12.02;;;11.50;99.90;;;;;;4996521;28;20042;-89
2021/07/16 04:17:27;;;;;;;15.02;11.55;;;11.60;99.90;;;;;;4996436;28;20062;-89
2021/07/16 04:19:54;;;;;;;23.73;12.43;;;11.70;99.90;;;;;;4996282;28;20054;-88
2021/07/16 04:22:24;;;;;;;21.00;13.02;;;11.80;99.90;;;;;;4996326;28;20056;-88
2021/07/16 04:24:52;;;;;;;17.92;12.02;;;11.90;99.90;;;;;;4996090;28;20054;-89
2021/07/16 04:27:19;;;;;;;16.88;13.45;;;12.00;99.90;;;;;;4996227;28;20145;-89
2021/07/16 04:29:46;;;;;;;22.35;15.90;;;12.10;99.90;;;;;;4996319;28;20050;-89
2021/07/16 04:32:14;;;;;;;20.20;14.68;;;12.30;99.90;;;;;;4996333;28;20046;-88
2021/07/16 04:34:41;;;;;;;25.55;16.20;;;12.40;99.90;;;;;;4996021;28;20046;-89
2021/07/16 04:37:09;;;;;;;28.10;16.58;;;12.50;99.90;;;;;;4995884;28;20047;-88
2021/07/16 04:39:37;;;;;;;16.50;12.57;;;12.60;99.90;;;;;;4995989;28;20145;-88
2021/07/16 04:42:04;;;;;;;21.08;15.27;;;12.70;99.90;;;;;;4996940;28;20050;-88
2021/07/16 04:44:31;;;;;;;18.42;12.07;;;12.70;99.90;;;;;;4997968;28;20137;-88
2021/07/16 04:46:59;;;;;;;24.90;17.58;;;12.80;99.90;;;;;;4995930;28;20077;-89
2021/07/16 04:49:26;;;;;;;16.98;13.10;;;13.00;99.90;;;;;;4995868;28;20121;-89
2021/07/16 04:51:53;;;;;;;19.02;14.85;;;13.20;99.90;;;;;;4995650;28;20417;-89
2021/07/16 04:54:20;;;;;;;19.73;16.88;;;13.40;99.90;;;;;;4995677;28;20113;-89
2021/07/16 04:56:47;;;;;;;21.88;15.43;;;13.50;99.90;;;;;;4995190;28;20054;-88
2021/07/16 04:59:14;;;;;;;18.58;13.95;;;13.70;99.90;;;;;;4995510;28;20050;-89
2021/07/16 05:01:41;;;;;;;19.25;13.80;;;13.70;99.90;;;;;;4995380;28;20145;-89
2021/07/16 05:04:08;;;;;;;14.88;10.90;;;13.90;99.90;;;;;;4995487;28;20076;-89
2021/07/16 05:06:35;;;;;;;13.63;10.50;;;13.90;99.90;;;;;;4995386;28;20058;-88
2021/07/16 05:09:02;;;;;;;13.07;9.00;;;14.00;99.90;;;;;;4995453;28;20487;-88
2021/07/16 05:11:30;;;;;;;13.38;9.10;;;13.90;99.90;;;;;;4995522;28;20054;-89
2021/07/16 05:13:58;;;;;;;12.80;9.00;;;14.00;99.90;;;;;;4994971;28;20064;-89
2021/07/16 05:16:25;;;;;;;14.23;10.25;;;13.90;99.90;;;;;;4995186;28;20054;-89
2021/07/16 05:18:52;;;;;;;14.00;9.93;;;13.90;99.90;;;;;;4995326;28;20077;-89
2021/07/16 05:21:19;;;;;;;20.55;11.82;;;14.10;99.90;;;;;;4994862;28;20491;-89
2021/07/16 05:23:46;;;;;;;22.15;14.35;;;14.20;99.90;;;;;;4995097;28;20054;-89
2021/07/16 05:26:13;;;;;;;24.45;16.85;;;14.40;99.90;;;;;;4995121;28;20054;-89
2021/07/16 05:28:40;;;;;;;20.83;13.02;;;15.30;99.90;;;;;;4995222;28;20046;-89
2021/07/16 05:31:08;;;;;;;16.00;9.15;;;16.20;99.90;;;;;;4995071;28;20137;-90
2021/07/16 05:33:35;;;;;;;15.52;7.47;;;17.30;99.90;;;;;;4994987;28;20133;-89
2021/07/16 05:36:04;;;;;;;16.92;7.10;;;18.30;99.90;;;;;;4995563;28;20096;-90
2021/07/16 05:38:31;;;;;;;15.80;6.93;;;19.10;99.90;;;;;;4997035;28;20066;-90
2021/07/16 05:40:58;;;;;;;21.38;7.35;;;20.10;99.90;;;;;;4997180;28;20050;-89
2021/07/16 05:43:24;;;;;;;16.60;6.30;;;20.80;99.90;;;;;;4994885;28;20058;-90
2021/07/16 05:45:51;;;;;;;15.20;7.43;;;21.20;99.90;;;;;;4994598;28;20060;-90
2021/07/16 05:48:18;;;;;;;14.18;7.05;;;21.20;99.90;;;;;;4994679;28;20080;-91
2021/07/16 05:50:49;;;;;;;16.02;6.85;;;21.30;99.90;;;;;;4994774;28;20446;-91
2021/07/16 05:53:16;;;;;;;18.17;7.43;;;22.00;99.90;;;;;;4994744;28;20046;-90
2021/07/16 05:55:44;;;;;;;21.60;8.25;;;23.20;99.90;;;;;;4994556;28;20141;-91
2021/07/16 05:58:11;;;;;;;17.98;7.50;;;23.60;99.90;;;;;;4994511;28;20046;-91
2021/07/16 06:00:38;;;;;;;20.17;7.43;;;24.20;99.90;;;;;;4994599;28;20134;-91
2021/07/16 06:03:05;;;;;;;8.85;4.90;;;25.00;99.90;;;;;;4994460;28;20050;-90
2021/07/16 06:05:32;;;;;;;14.95;4.68;;;26.00;99.90;;;;;;4994336;28;20448;-88
2021/07/16 06:08:04;;;;;;;9.02;4.50;;;26.60;99.90;;;;;;4993398;28;20054;-90
2021/07/16 06:10:32;;;;;;;15.30;5.13;;;26.90;99.90;;;;;;4994496;28;20052;-91
2021/07/16 06:12:59;;;;;;;14.95;6.30;;;27.00;99.90;;;;;;4994098;28;20145;-91
2021/07/16 06:15:25;;;;;;;19.60;6.53;;;26.50;99.90;;;;;;4994175;28;20051;-90
2021/07/16 06:17:53;;;;;;;9.98;5.05;;;26.60;99.90;;;;;;4994265;28;20141;-92
2021/07/16 06:20:20;;;;;;;17.42;5.30;;;26.80;99.90;;;;;;4994415;28;20056;-90
2021/07/16 06:22:47;;;;;;;13.25;4.82;;;26.40;99.90;;;;;;4993906;28;20133;-92
2021/07/16 06:25:17;;;;;;;17.20;5.53;;;26.20;99.90;;;;;;4994748;28;20142;-91
2021/07/16 06:27:45;;;;;;;13.30;5.50;;;26.00;99.90;;;;;;4994147;28;20054;-91
2021/07/16 06:30:14;;;;;;;11.98;5.00;;;25.40;99.90;;;;;;4993311;28;20459;-92
2021/07/16 06:32:41;;;;;;;11.52;5.25;;;24.60;99.90;;;;;;4993846;28;20137;-90
2021/07/16 06:35:09;;;;;;;12.07;4.65;;;24.20;99.90;;;;;;4993725;28;20117;-91
2021/07/16 06:37:36;;;;;;;12.68;4.18;;;24.60;99.90;;;;;;4993891;28;20141;-90
2021/07/16 06:40:05;;;;;;;10.30;4.25;;;25.40;99.90;;;;;;4993862;28;20118;-93
2021/07/16 06:42:32;;;;;;;13.73;4.82;;;25.80;99.90;;;;;;4993667;28;20590;-92
2021/07/16 06:44:59;;;;;;;8.55;4.18;;;26.20;99.90;;;;;;4993738;28;20468;-90
2021/07/16 06:47:26;;;;;;;6.80;3.65;;;26.70;99.90;;;;;;4993866;28;20141;-93
2021/07/16 06:49:53;;;;;;;9.27;4.35;;;27.20;99.90;;;;;;4993751;28;20061;-90
2021/07/16 06:52:20;;;;;;;8.30;4.60;;;28.10;99.90;;;;;;4993435;28;20571;-91
2021/07/16 06:54:47;;;;;;;13.75;4.30;;;28.80;99.90;;;;;;4993563;28;20141;-91
2021/07/16 06:57:13;;;;;;;12.48;4.45;;;29.60;98.50;;;;;;4993545;28;20133;-92
2021/07/16 06:59:40;;;;;;;9.43;3.50;;;29.70;97.10;;;;;;4993692;28;20575;-91
2021/07/16 07:02:07;;;;;;;12.85;3.60;;;30.30;95.10;;;;;;4993439;28;20137;-91
2021/07/16 07:04:35;;;;;;;6.13;3.22;;;30.30;92.70;;;;;;4993846;28;20153;-92
2021/07/16 07:07:01;;;;;;;3.63;2.83;;;30.00;92.70;;;;;;4993435;28;20052;-92
2021/07/16 07:09:28;;;;;;;4.43;2.17;;;30.10;93.90;;;;;;4993241;28;20069;-93
2021/07/16 07:11:55;;;;;;;5.38;2.05;;;29.90;93.00;;;;;;4993300;28;20066;-94
2021/07/16 07:14:22;;;;;;;3.75;1.90;;;30.00;93.30;;;;;;4993709;28;20074;-92
2021/07/16 07:16:49;;;;;;;2.63;2.15;;;29.70;92.90;;;;;;4993509;28;20046;-93
2021/07/16 07:19:16;;;;;;;4.85;2.13;;;29.80;94.00;;;;;;4993371;28;20084;-90
2021/07/16 07:21:42;;;;;;;4.53;2.10;;;29.70;94.50;;;;;;4993891;28;20438;-92
2021/07/16 07:24:09;;;;;;;2.67;1.80;;;29.50;95.60;;;;;;4993733;28;20074;-93
2021/07/16 07:26:36;;;;;;;4.03;1.63;;;29.80;94.70;;;;;;4993569;28;20571;-92
2021/07/16 07:29:03;;;;;;;6.88;1.85;;;29.90;94.20;;;;;;4992693;28;20055;-94
2021/07/16 07:31:30;;;;;;;1.73;1.48;;;30.70;92.90;;;;;;4994117;28;20137;-93
2021/07/16 07:33:57;;;;;;;3.20;1.50;;;31.20;92.60;;;;;;4993534;28;20046;-90
2021/07/16 07:36:28;;;;;;;4.15;1.52;;;31.60;92.70;;;;;;4993169;28;20141;-92
2021/07/16 07:38:59;;;;;;;3.88;1.58;;;33.00;88.70;;;;;;4994874;28;20042;-92
2021/07/16 07:41:27;;;;;;;1.50;1.33;;;33.10;86.00;;;;;;4993418;28;20489;-94
2021/07/16 07:43:54;;;;;;;4.75;1.55;;;33.20;82.80;;;;;;4993954;28;20491;-93
2021/07/16 07:46:21;;;;;;;3.30;1.50;;;32.20;82.30;;;;;;4993194;28;20407;-92
2021/07/16 07:48:48;;;;;;;3.60;1.45;;;31.90;84.10;;;;;;4993362;28;20116;-93
2021/07/16 07:51:14;;;;;;;4.20;1.60;;;32.20;85.20;;;;;;4993583;28;20495;-92
2021/07/16 07:53:41;;;;;;;3.55;1.42;;;32.60;82.50;;;;;;4992929;28;20081;-93
2021/07/16 07:56:27;;;;;;;3.88;1.20;;;32.60;82.70;;;;;;4997434;28;20050;-93
2021/07/16 07:58:54;;;;;;;2.33;1.38;;;33.40;80.50;;;;;;5006090;28;20121;-88
2021/07/16 08:01:20;;;;;;;2.42;1.08;;;34.10;79.00;;;;;;5009315;28;20109;-92
2021/07/16 08:03:48;;;;;;;0.90;0.90;;;36.10;75.50;;;;;;4994697;28;20129;-95
2021/07/16 08:06:15;;;;;;;0.95;0.93;;;35.60;72.80;;;;;;4993734;28;20058;-89
2021/07/16 08:08:41;;;;;;;3.63;1.20;;;34.60;74.20;;;;;;4993409;28;20142;-91
2021/07/16 08:11:08;;;;;;;1.05;1.05;;;36.00;72.70;;;;;;4993227;28;20064;-90
2021/07/16 08:13:36;;;;;;;0.90;0.90;;;35.80;69.80;;;;;;4992319;28;20542;-89
2021/07/16 08:16:04;;;;;;;1.42;1.00;;;35.80;69.40;;;;;;4992889;28;20057;-89
2021/07/16 08:18:32;;;;;;;2.03;1.40;;;36.40;68.40;;;;;;4993046;28;20169;-91
2021/07/16 08:20:59;;;;;;;1.92;0.98;;;37.00;67.60;;;;;;4993170;28;20555;-92
2021/07/16 08:23:25;;;;;;;3.38;1.30;;;38.60;63.60;;;;;;4993225;28;20491;-92
2021/07/16 08:25:52;;;;;;;3.72;1.30;;;38.40;62.30;;;;;;4994471;28;20050;-93
2021/07/16 08:28:19;;;;;;;1.23;1.23;;;37.20;61.00;;;;;;5006331;28;20142;-92
2021/07/16 08:30:46;;;;;;;2.15;1.17;;;36.80;62.90;;;;;;5006705;28;20057;-92
2021/07/16 08:33:13;;;;;;;8.15;1.90;;;36.70;62.60;;;;;;4998811;28;20088;-89
2021/07/16 08:35:40;;;;;;;4.65;2.00;;;37.60;63.90;;;;;;4997275;28;20069;-92
2021/07/16 08:38:07;;;;;;;9.45;2.63;;;37.30;63.30;;;;;;4996348;28;20137;-92
2021/07/16 08:40:34;;;;;;;4.63;1.52;;;37.50;63.90;;;;;;4997648;28;20122;-93
2021/07/16 08:43:02;;;;;;;2.65;1.30;;;37.40;61.70;;;;;;4997397;28;20411;-93
2021/07/16 08:45:29;;;;;;;3.80;1.60;;;37.00;61.00;;;;;;4998412;28;20074;-91
2021/07/16 08:47:56;;;;;;;9.13;1.80;;;35.60;65.40;;;;;;5003325;28;20125;-90
2021/07/16 08:50:26;;;;;;;4.10;2.10;;;36.10;65.50;;;;;;4996447;28;20509;-93
2021/07/16 08:53:01;;;;;;;37.25;6.65;;;36.50;65.50;;;;;;4996166;28;20114;-94
2021/07/16 08:55:33;;;;;;;22.98;5.88;;;37.20;63.30;;;;;;4997028;28;20085;-90
2021/07/16 08:58:00;;;;;;;5.68;2.45;;;37.60;62.00;;;;;;4995833;28;20138;-90
2021/07/16 09:00:26;;;;;;;1.88;1.40;;;37.90;61.50;;;;;;4996027;28;20065;-92
2021/07/16 09:02:58;;;;;;;1.60;1.42;;;37.30;62.30;;;;;;4996784;28;20136;-93
2021/07/16 09:05:37;;;;;;;4.22;1.65;;;37.20;63.50;;;;;;4996161;28;20459;-90
2021/07/16 09:08:11;;;;;;;3.25;1.30;;;37.70;61.10;;;;;;4995229;28;20054;-91
2021/07/16 09:10:44;;;;;;;1.73;1.63;;;36.90;63.90;;;;;;4994913;28;20470;-92
2021/07/16 09:13:11;;;;;;;1.88;1.20;;;38.50;62.80;;;;;;4995302;28;20141;-90
2021/07/16 09:15:57;;;;;;;2.25;1.20;;;38.20;63.30;;;;;;4995605;28;20046;-90
2021/07/16 09:18:26;;;;;;;2.47;1.60;;;37.60;63.00;;;;;;4995987;28;20479;-91
2021/07/16 09:21:02;;;;;;;1.40;1.30;;;38.40;61.30;;;;;;4995524;28;20073;-92
2021/07/16 09:23:36;;;;;;;3.30;1.60;;;39.20;59.60;;;;;;4995165;28;20109;-91
2021/07/16 09:26:11;;;;;;;2.67;1.48;;;38.80;59.50;;;;;;4994873;28;20046;-91
2021/07/16 09:28:40;;;;;;;4.80;1.40;;;38.80;59.20;;;;;;4995529;28;20140;-91
2021/07/16 09:31:12;;;;;;;1.45;1.35;;;39.90;59.10;;;;;;4995165;28;20060;-92
2021/07/16 09:33:48;;;;;;;3.95;1.20;;;40.80;58.00;;;;;;4995368;28;20058;-91
2021/07/16 09:36:34;;;;;;;1.50;1.00;;;42.30;54.60;;;;;;4995139;28;20062;-92
2021/07/16 09:39:06;;;;;;;1.70;1.35;;;42.40;53.40;;;;;;4995744;28;20105;-94
2021/07/16 09:41:33;;;;;;;0.90;0.90;;;41.60;52.90;;;;;;4994876;28;20523;-93
2021/07/16 09:44:03;;;;;;;3.13;1.30;;;41.10;54.00;;;;;;4993986;28;20543;-92
2021/07/16 09:46:30;;;;;;;1.30;1.20;;;41.60;52.70;;;;;;4995317;28;20129;-92
2021/07/16 09:49:13;;;;;;;2.58;1.23;;;41.50;53.80;;;;;;4995243;28;20050;-93
2021/07/16 09:51:41;;;;;;;;;;;43.40;52.60;;;;;;4995499;28;20157;-93
2021/07/16 09:54:13;;;;;;;2.53;1.13;;;43.50;51.10;;;;;;4994604;28;20004;-93
2021/07/16 09:56:41;;;;;;;2.30;1.57;;;43.20;51.10;;;;;;4994899;28;20046;-93
2021/07/16 09:59:13;;;;;;;2.10;1.38;;;41.90;52.40;;;;;;4994988;28;20181;-91
2021/07/16 10:01:42;;;;;;;7.05;1.25;;;41.40;52.80;;;;;;4994541;28;20550;-92
2021/07/16 10:04:18;;;;;;;4.35;1.40;;;42.60;52.40;;;;;;4994024;28;20578;-93
2021/07/16 10:06:50;;;;;;;1.50;1.40;;;44.30;50.60;;;;;;4995808;28;20555;-93
2021/07/16 10:09:18;;;;;;;3.33;1.80;;;42.30;49.30;;;;;;4979097;28;20061;-90
2021/07/16 10:11:53;;;;;;;4.00;1.65;;;41.30;50.90;;;;;;4994240;28;20555;-92
2021/07/16 10:14:20;;;;;;;1.23;1.17;;;40.30;53.60;;;;;;4994441;28;20084;-91
2021/07/16 10:16:49;;;;;;;2.92;2.08;;;40.30;52.70;;;;;;4999376;28;20118;-92
2021/07/16 10:19:17;;;;;;;1.77;1.67;;;39.20;53.60;;;;;;5010261;28;20046;-91
2021/07/16 10:21:49;;;;;;;2.08;1.33;;;39.30;54.70;;;;;;5012566;28;20046;-91
2021/07/16 10:24:22;;;;;;;3.30;1.48;;;41.60;51.60;;;;;;4994645;28;20058;-92
2021/07/16 10:26:56;;;;;;;1.75;1.52;;;42.30;51.30;;;;;;4994161;28;20048;-91
2021/07/16 10:29:45;;;;;;;2.85;1.77;;;43.80;50.70;;;;;;4994748;28;20065;-93
2021/07/16 10:32:43;;;;;;;1.70;1.60;;;42.30;50.00;;;;;;4994800;28;20046;-94
2021/07/16 10:35:13;;;;;;;2.83;1.83;;;41.30;51.30;;;;;;4994060;28;20404;-93
2021/07/16 10:37:40;;;;;;;4.82;1.60;;;41.10;50.60;;;;;;4994475;28;20104;-91
2021/07/16 10:40:07;;;;;;;3.95;2.20;;;41.20;50.80;;;;;;4993581;28;20049;-91
2021/07/16 10:42:37;;;;;;;3.03;2.00;;;39.50;52.50;;;;;;4994177;28;20410;-91
2021/07/16 10:45:08;;;;;;;2.13;2.00;;;39.10;53.20;;;;;;4994038;28;20076;-91
2021/07/16 10:47:36;;;;;;;2.95;1.77;;;39.50;53.90;;;;;;4994452;28;20144;-93
2021/07/16 10:50:05;;;;;;;4.35;1.95;;;38.80;54.40;;;;;;4994059;28;20050;-92
2021/07/16 10:52:50;;;;;;;4.80;2.10;;;39.80;53.50;;;;;;4994743;28;20061;-93
2021/07/16 10:55:29;;;;;;;2.30;1.30;;;40.30;53.50;;;;;;4993785;28;20406;-91
2021/07/16 10:57:56;;;;;;;2.90;2.00;;;41.80;52.30;;;;;;4995565;28;20085;-92
2021/07/16 11:00:35;;;;;;;2.70;2.20;;;42.40;50.40;;;;;;4993787;28;20568;-95
2021/07/16 11:03:14;;;;;;;3.95;2.17;;;41.00;50.20;;;;;;4994450;28;20050;-93
2021/07/16 11:05:47;;;;;;;2.17;2.03;;;40.80;51.60;;;;;;4994702;28;20118;-92
2021/07/16 11:08:40;;;;;;;1.88;1.77;;;40.50;52.20;;;;;;4994027;28;20557;-92
2021/07/16 11:11:38;;;;;;;3.45;1.88;;;41.90;52.40;;;;;;4992650;28;20062;-92
2021/07/16 11:14:18;;;;;;;3.55;1.77;;;43.90;50.60;;;;;;4990444;28;20125;-93
2021/07/16 11:16:48;;;;;;;1.95;1.58;;;43.40;49.30;;;;;;4995080;28;20052;-92
2021/07/16 11:19:20;;;;;;;1.90;1.75;;;41.70;49.50;;;;;;4993449;28;20502;-92
2021/07/16 11:21:46;;;;;;;1.70;1.60;;;40.40;52.20;;;;;;4993556;28;20042;-93
2021/07/16 11:24:19;;;;;;;1.75;1.65;;;40.30;51.90;;;;;;4993980;28;20058;-91
2021/07/16 11:26:54;;;;;;;3.67;1.70;;;38.90;51.10;;;;;;4994546;28;20089;-92
2021/07/16 11:29:36;;;;;;;1.90;1.80;;;37.50;52.60;;;;;;4994017;28;20118;-90
2021/07/16 11:32:14;;;;;;;4.60;2.28;;;36.00;56.10;;;;;;4993840;28;20554;-95
2021/07/16 11:34:56;;;;;;;2.00;1.90;;;35.70;57.10;;;;;;4993863;28;20418;-92
2021/07/16 11:37:30;;;;;;;2.28;1.92;;;35.10;57.60;;;;;;4994747;28;20054;-91
2021/07/16 11:40:04;;;;;;;2.60;1.90;;;33.80;61.10;;;;;;4992911;28;20137;-92
2021/07/16 11:42:33;;;;;;;2.35;2.05;;;33.20;63.20;;;;;;4993297;28;20467;-92
2021/07/16 11:45:01;;;;;;;4.63;2.55;;;32.40;64.80;;;;;;4993272;28;20093;-92
2021/07/16 11:47:31;;;;;;;2.88;2.35;;;31.60;67.60;;;;;;4993387;28;20133;-93
2021/07/16 11:50:02;;;;;;;2.05;1.95;;;31.40;69.30;;;;;;4993138;28;20046;-89
2021/07/16 11:52:31;;;;;;;2.40;2.30;;;31.10;68.40;;;;;;4993155;28;20054;-91
2021/07/16 11:55:06;;;;;;;2.70;2.50;;;30.50;69.30;;;;;;4993013;28;20057;-91
2021/07/16 11:57:47;;;;;;;3.28;1.90;;;30.30;70.80;;;;;;4993571;28;20137;-91
2021/07/16 12:00:15;;;;;;;2.20;2.10;;;30.70;73.90;;;;;;4993784;28;20500;-94
2021/07/16 12:02:50;;;;;;;2.25;2.05;;;31.10;72.70;;;;;;4993793;28;20058;-92
2021/07/16 12:05:21;;;;;;;3.10;2.00;;;31.10;71.50;;;;;;4994333;28;20054;-91
2021/07/16 12:07:48;;;;;;;4.05;2.10;;;31.00;70.60;;;;;;4999945;28;20145;-92
2021/07/16 12:10:19;;;;;;;2.60;2.20;;;30.50;71.70;;;;;;5014244;28;20074;-92
2021/07/16 12:12:47;;;;;;;2.47;2.00;;;30.30;72.70;;;;;;5012800;28;20085;-91
2021/07/16 12:15:22;;;;;;;3.67;1.98;;;30.10;70.70;;;;;;5010768;28;20054;-92
2021/07/16 12:17:58;;;;;;;2.97;1.98;;;30.00;72.20;;;;;;5005933;28;20057;-94
2021/07/16 12:20:41;;;;;;;2.20;2.10;;;29.80;71.40;;;;;;5002968;28;20132;-91
2021/07/16 12:23:14;;;;;;;2.08;1.92;;;29.40;73.70;;;;;;5009175;28;20050;-92
2021/07/16 12:25:43;;;;;;;3.33;2.20;;;29.50;73.40;;;;;;4997437;28;20446;-94
2021/07/16 12:28:15;;;;;;;2.88;2.15;;;29.80;78.30;;;;;;4999078;28;20108;-92
2021/07/16 12:30:43;;;;;;;6.10;2.40;;;29.80;81.80;;;;;;4999001;28;20141;-93
2021/07/16 12:33:11;;;;;;;2.40;2.20;;;29.60;84.00;;;;;;4998794;28;20060;-92
2021/07/16 12:35:39;;;;;;;2.92;2.20;;;29.90;85.60;;;;;;5010974;28;20070;-90
2021/07/16 12:38:09;;;;;;;2.72;2.00;;;29.80;85.40;;;;;;5010129;28;20074;-89
2021/07/16 12:40:36;;;;;;;2.88;1.92;;;29.60;81.30;;;;;;5003677;28;20089;-93
2021/07/16 12:43:13;;;;;;;1.90;1.80;;;29.60;82.60;;;;;;4996935;28;20450;-92
2021/07/16 12:45:57;;;;;;;1.88;1.77;;;29.50;85.70;;;;;;4997655;28;20145;-89
2021/07/16 12:48:32;;;;;;;2.25;2.13;;;29.50;85.90;;;;;;4998510;28;20132;-94
2021/07/16 12:51:10;;;;;;;2.40;2.20;;;29.70;86.70;;;;;;4996510;28;20057;-91